sensor_id;sensor_type;location;lat;lon;timestamp;P1;durP1;ratioP1;P2;durP2;ratioP2
32236;SDS011;18726;44.732;10.550;2023-10-13T00:02:15;36.30;;;25.17;;
32236;SDS011;18726;44.732;10.550;2023-10-13T00:05:22;36.63;;;28.25;;
32236;SDS011;18726;44.732;10.550;2023-10-13T00:08:29;28.23;;;24.80;;
32236;SDS011;18726;44.732;10.550;2023-10-13T00:11:33;32.00;;;25.27;;
32236;SDS011;18726;44.732;10.550;2023-10-13T00:14:37;30.65;;;23.45;;
32236;SDS011;18726;44.732;10.550;2023-10-13T00:17:40;32.22;;;25.48;;
32236;SDS011;18726;44.732;10.550;2023-10-13T00:20:45;27.23;;;22.17;;
32236;SDS011;18726;44.732;10.550;2023-10-13T00:23:53;28.85;;;23.75;;
32236;SDS011;18726;44.732;10.550;2023-10-13T00:26:56;31.20;;;24.67;;
32236;SDS011;18726;44.732;10.550;2023-10-13T00:30:01;32.30;;;23.35;;
32236;SDS011;18726;44.732;10.550;2023-10-13T00:33:26;27.38;;;24.35;;
32236;SDS011;18726;44.732;10.550;2023-10-13T00:36:35;28.55;;;24.52;;
32236;SDS011;18726;44.732;10.550;2023-10-13T00:39:39;29.80;;;24.90;;
32236;SDS011;18726;44.732;10.550;2023-10-13T00:42:47;31.77;;;25.08;;
32236;SDS011;18726;44.732;10.550;2023-10-13T00:45:55;28.35;;;23.52;;
32236;SDS011;18726;44.732;10.550;2023-10-13T00:49:08;36.22;;;25.40;;
32236;SDS011;18726;44.732;10.550;2023-10-13T00:52:12;33.33;;;24.40;;
32236;SDS011;18726;44.732;10.550;2023-10-13T00:55:19;27.55;;;22.88;;
32236;SDS011;18726;44.732;10.550;2023-10-13T00:58:26;32.33;;;24.65;;
32236;SDS011;18726;44.732;10.550;2023-10-13T01:01:31;30.65;;;23.80;;
32236;SDS011;18726;44.732;10.550;2023-10-13T01:04:39;24.25;;;20.17;;
32236;SDS011;18726;44.732;10.550;2023-10-13T01:07:42;27.90;;;19.27;;
32236;SDS011;18726;44.732;10.550;2023-10-13T01:10:46;32.88;;;20.40;;
32236;SDS011;18726;44.732;10.550;2023-10-13T01:13:49;21.35;;;16.83;;
32236;SDS011;18726;44.732;10.550;2023-10-13T01:16:56;26.88;;;19.33;;
32236;SDS011;18726;44.732;10.550;2023-10-13T01:20:01;22.85;;;20.40;;
32236;SDS011;18726;44.732;10.550;2023-10-13T01:23:08;22.67;;;19.73;;
32236;SDS011;18726;44.732;10.550;2023-10-13T01:26:28;23.85;;;20.95;;
32236;SDS011;18726;44.732;10.550;2023-10-13T01:29:31;23.20;;;18.48;;
32236;SDS011;18726;44.732;10.550;2023-10-13T01:32:36;24.80;;;19.65;;
32236;SDS011;18726;44.732;10.550;2023-10-13T01:35:43;26.25;;;20.20;;
32236;SDS011;18726;44.732;10.550;2023-10-13T01:38:58;20.70;;;16.30;;
32236;SDS011;18726;44.732;10.550;2023-10-13T01:42:04;22.13;;;16.55;;
32236;SDS011;18726;44.732;10.550;2023-10-13T01:45:09;24.70;;;20.23;;
32236;SDS011;18726;44.732;10.550;2023-10-13T01:48:13;18.77;;;15.88;;
32236;SDS011;18726;44.732;10.550;2023-10-13T01:51:21;20.40;;;14.65;;
32236;SDS011;18726;44.732;10.550;2023-10-13T01:54:31;15.27;;;13.25;;
32236;SDS011;18726;44.732;10.550;2023-10-13T01:57:35;19.20;;;13.77;;
32236;SDS011;18726;44.732;10.550;2023-10-13T02:00:39;24.92;;;17.88;;
32236;SDS011;18726;44.732;10.550;2023-10-13T02:03:45;16.83;;;15.00;;
32236;SDS011;18726;44.732;10.550;2023-10-13T02:06:52;17.90;;;14.02;;
32236;SDS011;18726;44.732;10.550;2023-10-13T02:09:56;20.35;;;14.25;;
32236;SDS011;18726;44.732;10.550;2023-10-13T02:12:59;20.67;;;17.38;;
32236;SDS011;18726;44.732;10.550;2023-10-13T02:16:06;24.92;;;19.45;;
32236;SDS011;18726;44.732;10.550;2023-10-13T02:19:10;23.75;;;19.88;;
32236;SDS011;18726;44.732;10.550;2023-10-13T02:22:18;26.05;;;19.60;;
32236;SDS011;18726;44.732;10.550;2023-10-13T02:25:34;21.85;;;18.15;;
32236;SDS011;18726;44.732;10.550;2023-10-13T02:28:38;25.40;;;17.90;;
32236;SDS011;18726;44.732;10.550;2023-10-13T02:31:42;23.02;;;18.23;;
32236;SDS011;18726;44.732;10.550;2023-10-13T02:34:46;24.08;;;18.15;;
32236;SDS011;18726;44.732;10.550;2023-10-13T02:37:50;22.65;;;18.60;;
32236;SDS011;18726;44.732;10.550;2023-10-13T02:41:15;21.48;;;18.05;;
32236;SDS011;18726;44.732;10.550;2023-10-13T02:44:29;23.40;;;17.10;;
32236;SDS011;18726;44.732;10.550;2023-10-13T02:47:36;22.15;;;16.42;;
32236;SDS011;18726;44.732;10.550;2023-10-13T02:50:40;23.27;;;16.77;;
32236;SDS011;18726;44.732;10.550;2023-10-13T02:53:47;23.40;;;17.10;;
32236;SDS011;18726;44.732;10.550;2023-10-13T02:56:55;22.98;;;17.77;;
32236;SDS011;18726;44.732;10.550;2023-10-13T03:00:06;22.48;;;18.60;;
32236;SDS011;18726;44.732;10.550;2023-10-13T03:03:18;19.40;;;17.10;;
32236;SDS011;18726;44.732;10.550;2023-10-13T03:06:23;23.92;;;19.30;;
32236;SDS011;18726;44.732;10.550;2023-10-13T03:09:36;19.60;;;17.50;;
32236;SDS011;18726;44.732;10.550;2023-10-13T03:12:40;25.48;;;18.95;;
32236;SDS011;18726;44.732;10.550;2023-10-13T03:15:44;24.23;;;19.65;;
32236;SDS011;18726;44.732;10.550;2023-10-13T03:18:51;24.27;;;16.80;;
32236;SDS011;18726;44.732;10.550;2023-10-13T03:21:56;19.70;;;16.83;;
32236;SDS011;18726;44.732;10.550;2023-10-13T03:25:09;22.05;;;16.98;;
32236;SDS011;18726;44.732;10.550;2023-10-13T03:28:16;24.08;;;17.05;;
32236;SDS011;18726;44.732;10.550;2023-10-13T03:31:26;28.25;;;18.25;;
32236;SDS011;18726;44.732;10.550;2023-10-13T03:34:32;22.38;;;18.70;;
32236;SDS011;18726;44.732;10.550;2023-10-13T03:37:37;21.38;;;17.48;;
32236;SDS011;18726;44.732;10.550;2023-10-13T03:40:41;20.40;;;17.98;;
32236;SDS011;18726;44.732;10.550;2023-10-13T03:43:51;22.30;;;18.20;;
32236;SDS011;18726;44.732;10.550;2023-10-13T03:47:10;19.52;;;17.42;;
32236;SDS011;18726;44.732;10.550;2023-10-13T03:50:21;23.27;;;18.15;;
32236;SDS011;18726;44.732;10.550;2023-10-13T03:53:39;29.70;;;18.38;;
32236;SDS011;18726;44.732;10.550;2023-10-13T03:56:58;26.58;;;18.17;;
32236;SDS011;18726;44.732;10.550;2023-10-13T04:00:07;24.23;;;18.02;;
32236;SDS011;18726;44.732;10.550;2023-10-13T04:03:15;25.52;;;19.15;;
32236;SDS011;18726;44.732;10.550;2023-10-13T04:06:19;25.10;;;18.98;;
32236;SDS011;18726;44.732;10.550;2023-10-13T04:09:43;25.60;;;18.40;;
32236;SDS011;18726;44.732;10.550;2023-10-13T04:12:53;27.85;;;18.63;;
32236;SDS011;18726;44.732;10.550;2023-10-13T04:16:15;23.00;;;18.40;;
32236;SDS011;18726;44.732;10.550;2023-10-13T04:19:26;23.13;;;18.02;;
32236;SDS011;18726;44.732;10.550;2023-10-13T04:22:44;25.23;;;18.38;;
32236;SDS011;18726;44.732;10.550;2023-10-13T04:25:51;24.98;;;18.90;;
32236;SDS011;18726;44.732;10.550;2023-10-13T04:28:55;29.60;;;18.20;;
32236;SDS011;18726;44.732;10.550;2023-10-13T04:32:00;24.42;;;16.65;;
32236;SDS011;18726;44.732;10.550;2023-10-13T04:35:04;29.42;;;17.77;;
32236;SDS011;18726;44.732;10.550;2023-10-13T04:38:17;24.38;;;17.45;;
32236;SDS011;18726;44.732;10.550;2023-10-13T04:41:26;22.73;;;17.45;;
32236;SDS011;18726;44.732;10.550;2023-10-13T04:44:35;22.17;;;18.58;;
32236;SDS011;18726;44.732;10.550;2023-10-13T04:47:44;29.00;;;18.67;;
32236;SDS011;18726;44.732;10.550;2023-10-13T04:51:00;25.02;;;17.52;;
32236;SDS011;18726;44.732;10.550;2023-10-13T04:54:23;20.83;;;16.67;;
32236;SDS011;18726;44.732;10.550;2023-10-13T04:57:31;20.42;;;17.73;;
32236;SDS011;18726;44.732;10.550;2023-10-13T05:00:50;20.10;;;17.42;;
32236;SDS011;18726;44.732;10.550;2023-10-13T05:04:19;18.85;;;16.45;;
32236;SDS011;18726;44.732;10.550;2023-10-13T05:07:42;24.35;;;19.65;;
32236;SDS011;18726;44.732;10.550;2023-10-13T05:11:05;28.02;;;16.73;;
32236;SDS011;18726;44.732;10.550;2023-10-13T05:14:27;21.63;;;17.23;;
32236;SDS011;18726;44.732;10.550;2023-10-13T05:17:50;23.17;;;17.05;;
32236;SDS011;18726;44.732;10.550;2023-10-13T05:21:12;27.15;;;18.73;;
32236;SDS011;18726;44.732;10.550;2023-10-13T05:24:34;23.10;;;17.73;;
32236;SDS011;18726;44.732;10.550;2023-10-13T05:27:57;23.65;;;18.42;;
32236;SDS011;18726;44.732;10.550;2023-10-13T05:31:19;22.55;;;17.90;;
32236;SDS011;18726;44.732;10.550;2023-10-13T05:34:41;27.35;;;18.75;;
32236;SDS011;18726;44.732;10.550;2023-10-13T05:38:04;26.65;;;18.75;;
32236;SDS011;18726;44.732;10.550;2023-10-13T05:41:26;21.50;;;18.83;;
32236;SDS011;18726;44.732;10.550;2023-10-13T05:44:49;26.00;;;18.23;;
32236;SDS011;18726;44.732;10.550;2023-10-13T05:48:11;21.83;;;18.17;;
32236;SDS011;18726;44.732;10.550;2023-10-13T05:51:17;27.20;;;19.60;;
32236;SDS011;18726;44.732;10.550;2023-10-13T05:54:38;34.45;;;18.77;;
32236;SDS011;18726;44.732;10.550;2023-10-13T05:58:01;21.90;;;18.65;;
32236;SDS011;18726;44.732;10.550;2023-10-13T06:04:45;24.70;;;18.83;;
32236;SDS011;18726;44.732;10.550;2023-10-13T06:08:07;20.38;;;18.25;;
32236;SDS011;18726;44.732;10.550;2023-10-13T06:11:29;24.98;;;18.80;;
32236;SDS011;18726;44.732;10.550;2023-10-13T06:14:51;25.35;;;19.80;;
32236;SDS011;18726;44.732;10.550;2023-10-13T06:18:14;25.02;;;18.95;;
32236;SDS011;18726;44.732;10.550;2023-10-13T06:21:37;27.73;;;18.73;;
32236;SDS011;18726;44.732;10.550;2023-10-13T06:24:59;23.15;;;19.42;;
32236;SDS011;18726;44.732;10.550;2023-10-13T06:28:22;27.45;;;18.00;;
32236;SDS011;18726;44.732;10.550;2023-10-13T06:31:44;26.38;;;18.58;;
32236;SDS011;18726;44.732;10.550;2023-10-13T06:34:49;36.13;;;20.17;;
32236;SDS011;18726;44.732;10.550;2023-10-13T06:37:54;26.77;;;18.38;;
32236;SDS011;18726;44.732;10.550;2023-10-13T06:41:06;19.20;;;17.17;;
32236;SDS011;18726;44.732;10.550;2023-10-13T06:44:11;22.02;;;16.48;;
32236;SDS011;18726;44.732;10.550;2023-10-13T06:47:19;35.53;;;17.08;;
32236;SDS011;18726;44.732;10.550;2023-10-13T06:50:23;24.00;;;16.63;;
32236;SDS011;18726;44.732;10.550;2023-10-13T06:53:32;37.67;;;17.20;;
32236;SDS011;18726;44.732;10.550;2023-10-13T06:56:41;22.02;;;17.60;;
32236;SDS011;18726;44.732;10.550;2023-10-13T06:59:45;21.88;;;16.17;;
32236;SDS011;18726;44.732;10.550;2023-10-13T07:02:49;21.67;;;15.70;;
32236;SDS011;18726;44.732;10.550;2023-10-13T07:05:55;22.98;;;15.82;;
32236;SDS011;18726;44.732;10.550;2023-10-13T07:09:02;20.52;;;15.48;;
32236;SDS011;18726;44.732;10.550;2023-10-13T07:12:08;16.13;;;13.93;;
32236;SDS011;18726;44.732;10.550;2023-10-13T07:15:19;20.67;;;14.80;;
32236;SDS011;18726;44.732;10.550;2023-10-13T07:18:23;23.20;;;15.73;;
32236;SDS011;18726;44.732;10.550;2023-10-13T07:21:27;20.50;;;15.30;;
32236;SDS011;18726;44.732;10.550;2023-10-13T07:24:36;30.50;;;17.23;;
32236;SDS011;18726;44.732;10.550;2023-10-13T07:27:43;21.13;;;15.98;;
32236;SDS011;18726;44.732;10.550;2023-10-13T07:30:47;22.42;;;16.02;;
32236;SDS011;18726;44.732;10.550;2023-10-13T07:33:57;19.67;;;15.63;;
32236;SDS011;18726;44.732;10.550;2023-10-13T07:37:08;24.60;;;14.55;;
32236;SDS011;18726;44.732;10.550;2023-10-13T07:40:12;17.05;;;14.30;;
32236;SDS011;18726;44.732;10.550;2023-10-13T07:43:45;20.70;;;12.45;;
32236;SDS011;18726;44.732;10.550;2023-10-13T07:46:48;14.88;;;11.82;;
32236;SDS011;18726;44.732;10.550;2023-10-13T07:50:01;19.17;;;13.20;;
32236;SDS011;18726;44.732;10.550;2023-10-13T07:53:09;20.95;;;14.02;;
32236;SDS011;18726;44.732;10.550;2023-10-13T07:56:22;20.77;;;13.68;;
32236;SDS011;18726;44.732;10.550;2023-10-13T07:59:25;23.65;;;16.15;;
32236;SDS011;18726;44.732;10.550;2023-10-13T08:02:29;15.65;;;13.70;;
32236;SDS011;18726;44.732;10.550;2023-10-13T08:05:51;17.35;;;13.90;;
32236;SDS011;18726;44.732;10.550;2023-10-13T08:09:16;17.67;;;13.30;;
32236;SDS011;18726;44.732;10.550;2023-10-13T08:12:41;16.80;;;11.48;;
32236;SDS011;18726;44.732;10.550;2023-10-13T08:15:47;14.98;;;11.35;;
32236;SDS011;18726;44.732;10.550;2023-10-13T08:18:51;14.32;;;12.00;;
32236;SDS011;18726;44.732;10.550;2023-10-13T08:21:57;17.02;;;12.00;;
32236;SDS011;18726;44.732;10.550;2023-10-13T08:25:02;17.02;;;12.70;;
32236;SDS011;18726;44.732;10.550;2023-10-13T08:28:23;23.05;;;12.70;;
32236;SDS011;18726;44.732;10.550;2023-10-13T08:31:39;23.48;;;14.20;;
32236;SDS011;18726;44.732;10.550;2023-10-13T08:34:46;16.83;;;14.35;;
32236;SDS011;18726;44.732;10.550;2023-10-13T08:37:50;16.23;;;14.10;;
32236;SDS011;18726;44.732;10.550;2023-10-13T08:40:56;17.30;;;14.68;;
32236;SDS011;18726;44.732;10.550;2023-10-13T08:44:20;23.58;;;19.08;;
32236;SDS011;18726;44.732;10.550;2023-10-13T08:47:36;18.05;;;16.25;;
32236;SDS011;18726;44.732;10.550;2023-10-13T08:50:48;20.08;;;16.08;;
32236;SDS011;18726;44.732;10.550;2023-10-13T08:53:53;16.38;;;14.77;;
32236;SDS011;18726;44.732;10.550;2023-10-13T08:57:01;17.33;;;14.20;;
32236;SDS011;18726;44.732;10.550;2023-10-13T09:00:31;18.27;;;15.32;;
32236;SDS011;18726;44.732;10.550;2023-10-13T09:03:56;20.65;;;14.90;;
32236;SDS011;18726;44.732;10.550;2023-10-13T09:07:21;17.08;;;15.23;;
32236;SDS011;18726;44.732;10.550;2023-10-13T09:10:28;15.02;;;13.05;;
32236;SDS011;18726;44.732;10.550;2023-10-13T09:13:47;21.55;;;16.10;;
32236;SDS011;18726;44.732;10.550;2023-10-13T09:16:51;15.73;;;14.05;;
32236;SDS011;18726;44.732;10.550;2023-10-13T09:20:06;19.55;;;15.13;;
32236;SDS011;18726;44.732;10.550;2023-10-13T09:23:25;20.95;;;15.95;;
32236;SDS011;18726;44.732;10.550;2023-10-13T09:26:33;24.75;;;19.25;;
32236;SDS011;18726;44.732;10.550;2023-10-13T09:29:39;25.77;;;19.20;;
32236;SDS011;18726;44.732;10.550;2023-10-13T09:32:45;24.98;;;20.75;;
32236;SDS011;18726;44.732;10.550;2023-10-13T09:35:49;22.45;;;19.05;;
32236;SDS011;18726;44.732;10.550;2023-10-13T09:38:53;21.58;;;16.20;;
32236;SDS011;18726;44.732;10.550;2023-10-13T09:42:16;22.70;;;18.48;;
32236;SDS011;18726;44.732;10.550;2023-10-13T09:45:28;25.30;;;18.75;;
32236;SDS011;18726;44.732;10.550;2023-10-13T09:48:44;19.92;;;14.82;;
32236;SDS011;18726;44.732;10.550;2023-10-13T09:51:50;19.15;;;16.92;;
32236;SDS011;18726;44.732;10.550;2023-10-13T09:55:07;19.52;;;16.92;;
32236;SDS011;18726;44.732;10.550;2023-10-13T09:58:16;19.88;;;16.00;;
32236;SDS011;18726;44.732;10.550;2023-10-13T10:01:27;14.32;;;12.27;;
32236;SDS011;18726;44.732;10.550;2023-10-13T10:04:38;19.27;;;13.13;;
32236;SDS011;18726;44.732;10.550;2023-10-13T10:07:57;18.42;;;15.05;;
32236;SDS011;18726;44.732;10.550;2023-10-13T10:11:18;16.10;;;14.18;;
32236;SDS011;18726;44.732;10.550;2023-10-13T10:14:35;14.27;;;12.57;;
32236;SDS011;18726;44.732;10.550;2023-10-13T10:17:58;25.48;;;14.43;;
32236;SDS011;18726;44.732;10.550;2023-10-13T10:21:05;27.77;;;14.55;;
32236;SDS011;18726;44.732;10.550;2023-10-13T10:24:17;18.88;;;14.48;;
32236;SDS011;18726;44.732;10.550;2023-10-13T10:27:33;18.27;;;13.02;;
32236;SDS011;18726;44.732;10.550;2023-10-13T10:30:37;18.55;;;12.07;;
32236;SDS011;18726;44.732;10.550;2023-10-13T10:33:42;22.98;;;14.52;;
32236;SDS011;18726;44.732;10.550;2023-10-13T10:36:48;23.63;;;17.25;;
32236;SDS011;18726;44.732;10.550;2023-10-13T10:39:58;25.08;;;18.15;;
32236;SDS011;18726;44.732;10.550;2023-10-13T10:43:02;25.85;;;17.63;;
32236;SDS011;18726;44.732;10.550;2023-10-13T10:46:12;18.65;;;15.40;;
32236;SDS011;18726;44.732;10.550;2023-10-13T10:49:28;24.17;;;16.02;;
32236;SDS011;18726;44.732;10.550;2023-10-13T10:52:33;19.25;;;15.52;;
32236;SDS011;18726;44.732;10.550;2023-10-13T10:55:42;18.42;;;13.82;;
32236;SDS011;18726;44.732;10.550;2023-10-13T10:58:47;24.30;;;16.75;;
32236;SDS011;18726;44.732;10.550;2023-10-13T11:01:51;31.35;;;17.83;;
32236;SDS011;18726;44.732;10.550;2023-10-13T11:04:55;20.80;;;15.85;;
32236;SDS011;18726;44.732;10.550;2023-10-13T11:08:01;20.75;;;14.95;;
32236;SDS011;18726;44.732;10.550;2023-10-13T11:11:05;16.40;;;12.88;;
32236;SDS011;18726;44.732;10.550;2023-10-13T11:17:26;29.67;;;17.17;;
32236;SDS011;18726;44.732;10.550;2023-10-13T11:20:46;25.02;;;18.02;;
32236;SDS011;18726;44.732;10.550;2023-10-13T11:23:57;21.85;;;16.52;;
32236;SDS011;18726;44.732;10.550;2023-10-13T11:27:15;20.83;;;17.85;;
32236;SDS011;18726;44.732;10.550;2023-10-13T11:30:25;17.85;;;15.52;;
32236;SDS011;18726;44.732;10.550;2023-10-13T11:33:35;33.35;;;20.85;;
32236;SDS011;18726;44.732;10.550;2023-10-13T11:36:39;24.83;;;19.55;;
32236;SDS011;18726;44.732;10.550;2023-10-13T11:39:43;28.88;;;19.95;;
32236;SDS011;18726;44.732;10.550;2023-10-13T11:42:47;31.38;;;19.75;;
32236;SDS011;18726;44.732;10.550;2023-10-13T11:45:52;22.85;;;18.95;;
32236;SDS011;18726;44.732;10.550;2023-10-13T11:49:15;21.95;;;14.63;;
32236;SDS011;18726;44.732;10.550;2023-10-13T11:52:19;27.25;;;17.83;;
32236;SDS011;18726;44.732;10.550;2023-10-13T11:55:23;20.35;;;15.60;;
32236;SDS011;18726;44.732;10.550;2023-10-13T11:58:27;16.80;;;15.10;;
32236;SDS011;18726;44.732;10.550;2023-10-13T12:01:33;24.40;;;14.40;;
32236;SDS011;18726;44.732;10.550;2023-10-13T12:04:56;19.70;;;13.90;;
32236;SDS011;18726;44.732;10.550;2023-10-13T12:08:02;16.92;;;12.98;;
32236;SDS011;18726;44.732;10.550;2023-10-13T12:11:10;20.73;;;11.98;;
32236;SDS011;18726;44.732;10.550;2023-10-13T12:14:32;12.32;;;11.00;;
32236;SDS011;18726;44.732;10.550;2023-10-13T12:17:55;31.20;;;13.10;;
32236;SDS011;18726;44.732;10.550;2023-10-13T12:21:07;21.15;;;13.43;;
32236;SDS011;18726;44.732;10.550;2023-10-13T12:24:12;20.43;;;14.60;;
32236;SDS011;18726;44.732;10.550;2023-10-13T12:27:25;20.70;;;14.93;;
32236;SDS011;18726;44.732;10.550;2023-10-13T12:30:38;19.50;;;12.63;;
32236;SDS011;18726;44.732;10.550;2023-10-13T12:33:52;18.98;;;14.90;;
32236;SDS011;18726;44.732;10.550;2023-10-13T12:36:56;30.23;;;15.93;;
32236;SDS011;18726;44.732;10.550;2023-10-13T12:40:12;20.60;;;15.23;;
32236;SDS011;18726;44.732;10.550;2023-10-13T12:43:36;22.27;;;15.30;;
32236;SDS011;18726;44.732;10.550;2023-10-13T12:46:59;15.25;;;13.32;;
32236;SDS011;18726;44.732;10.550;2023-10-13T12:50:21;24.00;;;14.85;;
32236;SDS011;18726;44.732;10.550;2023-10-13T12:53:37;21.85;;;14.57;;
32236;SDS011;18726;44.732;10.550;2023-10-13T12:56:41;16.33;;;14.32;;
32236;SDS011;18726;44.732;10.550;2023-10-13T12:59:45;20.88;;;15.00;;
32236;SDS011;18726;44.732;10.550;2023-10-13T13:02:49;16.33;;;14.50;;
32236;SDS011;18726;44.732;10.550;2023-10-13T13:05:55;19.58;;;13.95;;
32236;SDS011;18726;44.732;10.550;2023-10-13T13:08:59;21.33;;;13.57;;
32236;SDS011;18726;44.732;10.550;2023-10-13T13:12:03;21.10;;;12.35;;
32236;SDS011;18726;44.732;10.550;2023-10-13T13:15:09;21.35;;;14.20;;
32236;SDS011;18726;44.732;10.550;2023-10-13T13:18:15;19.20;;;16.50;;
32236;SDS011;18726;44.732;10.550;2023-10-13T13:21:18;18.52;;;15.48;;
32236;SDS011;18726;44.732;10.550;2023-10-13T13:24:27;18.70;;;13.73;;
32236;SDS011;18726;44.732;10.550;2023-10-13T13:27:33;22.67;;;15.32;;
32236;SDS011;18726;44.732;10.550;2023-10-13T13:30:37;16.70;;;12.57;;
32236;SDS011;18726;44.732;10.550;2023-10-13T13:33:41;16.55;;;14.50;;
32236;SDS011;18726;44.732;10.550;2023-10-13T13:36:48;18.73;;;13.15;;
32236;SDS011;18726;44.732;10.550;2023-10-13T13:39:55;13.07;;;11.55;;
32236;SDS011;18726;44.732;10.550;2023-10-13T13:42:59;19.98;;;14.27;;
32236;SDS011;18726;44.732;10.550;2023-10-13T13:46:04;20.77;;;13.75;;
32236;SDS011;18726;44.732;10.550;2023-10-13T13:49:12;17.45;;;13.98;;
32236;SDS011;18726;44.732;10.550;2023-10-13T13:52:21;14.32;;;12.23;;
32236;SDS011;18726;44.732;10.550;2023-10-13T13:55:36;21.33;;;13.30;;
32236;SDS011;18726;44.732;10.550;2023-10-13T13:58:43;20.77;;;13.98;;
32236;SDS011;18726;44.732;10.550;2023-10-13T14:01:50;21.50;;;16.25;;
32236;SDS011;18726;44.732;10.550;2023-10-13T14:04:56;24.75;;;16.60;;
32236;SDS011;18726;44.732;10.550;2023-10-13T14:08:00;18.95;;;14.20;;
32236;SDS011;18726;44.732;10.550;2023-10-13T14:11:03;27.75;;;16.05;;
32236;SDS011;18726;44.732;10.550;2023-10-13T14:14:16;21.40;;;15.43;;
32236;SDS011;18726;44.732;10.550;2023-10-13T14:17:28;22.50;;;15.85;;
32236;SDS011;18726;44.732;10.550;2023-10-13T14:20:33;21.20;;;15.27;;
32236;SDS011;18726;44.732;10.550;2023-10-13T14:23:46;20.70;;;15.50;;
32236;SDS011;18726;44.732;10.550;2023-10-13T14:26:50;23.35;;;16.23;;
32236;SDS011;18726;44.732;10.550;2023-10-13T14:29:55;27.65;;;17.48;;
32236;SDS011;18726;44.732;10.550;2023-10-13T14:33:00;25.25;;;15.60;;
32236;SDS011;18726;44.732;10.550;2023-10-13T14:36:04;24.85;;;16.50;;
32236;SDS011;18726;44.732;10.550;2023-10-13T14:39:08;22.95;;;16.98;;
32236;SDS011;18726;44.732;10.550;2023-10-13T14:42:14;25.42;;;17.42;;
32236;SDS011;18726;44.732;10.550;2023-10-13T14:45:20;20.55;;;17.00;;
32236;SDS011;18726;44.732;10.550;2023-10-13T14:48:25;23.70;;;17.73;;
32236;SDS011;18726;44.732;10.550;2023-10-13T14:51:29;24.90;;;19.27;;
32236;SDS011;18726;44.732;10.550;2023-10-13T14:54:33;22.58;;;17.60;;
32236;SDS011;18726;44.732;10.550;2023-10-13T14:57:37;24.80;;;19.10;;
32236;SDS011;18726;44.732;10.550;2023-10-13T15:00:41;27.48;;;18.48;;
32236;SDS011;18726;44.732;10.550;2023-10-13T15:03:49;27.08;;;16.27;;
32236;SDS011;18726;44.732;10.550;2023-10-13T15:07:01;33.65;;;17.80;;
32236;SDS011;18726;44.732;10.550;2023-10-13T15:10:05;24.10;;;16.63;;
32236;SDS011;18726;44.732;10.550;2023-10-13T15:13:09;19.05;;;16.60;;
32236;SDS011;18726;44.732;10.550;2023-10-13T15:19:21;20.95;;;16.35;;
32236;SDS011;18726;44.732;10.550;2023-10-13T15:22:27;23.63;;;18.10;;
32236;SDS011;18726;44.732;10.550;2023-10-13T15:25:31;24.33;;;18.85;;
32236;SDS011;18726;44.732;10.550;2023-10-13T15:28:45;24.77;;;17.27;;
32236;SDS011;18726;44.732;10.550;2023-10-13T15:31:59;20.98;;;18.25;;
32236;SDS011;18726;44.732;10.550;2023-10-13T15:35:03;21.77;;;16.08;;
32236;SDS011;18726;44.732;10.550;2023-10-13T15:38:07;23.98;;;17.48;;
32236;SDS011;18726;44.732;10.550;2023-10-13T15:41:12;23.75;;;18.20;;
32236;SDS011;18726;44.732;10.550;2023-10-13T15:44:16;23.30;;;18.65;;
32236;SDS011;18726;44.732;10.550;2023-10-13T15:47:19;27.38;;;18.33;;
32236;SDS011;18726;44.732;10.550;2023-10-13T15:50:23;26.95;;;18.13;;
32236;SDS011;18726;44.732;10.550;2023-10-13T15:53:27;22.15;;;17.58;;
32236;SDS011;18726;44.732;10.550;2023-10-13T15:56:31;23.67;;;17.13;;
32236;SDS011;18726;44.732;10.550;2023-10-13T15:59:35;37.05;;;17.75;;
32236;SDS011;18726;44.732;10.550;2023-10-13T16:02:39;23.63;;;16.98;;
32236;SDS011;18726;44.732;10.550;2023-10-13T16:05:46;22.70;;;17.58;;
32236;SDS011;18726;44.732;10.550;2023-10-13T16:08:52;24.08;;;18.17;;
32236;SDS011;18726;44.732;10.550;2023-10-13T16:11:56;26.15;;;18.83;;
32236;SDS011;18726;44.732;10.550;2023-10-13T16:15:01;26.75;;;17.90;;
32236;SDS011;18726;44.732;10.550;2023-10-13T16:18:05;24.05;;;18.10;;
32236;SDS011;18726;44.732;10.550;2023-10-13T16:21:10;25.13;;;17.67;;
32236;SDS011;18726;44.732;10.550;2023-10-13T16:24:15;23.65;;;18.98;;
32236;SDS011;18726;44.732;10.550;2023-10-13T16:27:21;22.00;;;17.83;;
32236;SDS011;18726;44.732;10.550;2023-10-13T16:30:25;31.83;;;19.30;;
32236;SDS011;18726;44.732;10.550;2023-10-13T16:33:29;26.05;;;18.40;;
32236;SDS011;18726;44.732;10.550;2023-10-13T16:36:36;24.45;;;18.02;;
32236;SDS011;18726;44.732;10.550;2023-10-13T16:39:39;22.55;;;18.05;;
32236;SDS011;18726;44.732;10.550;2023-10-13T16:42:43;27.45;;;19.63;;
32236;SDS011;18726;44.732;10.550;2023-10-13T16:45:47;30.15;;;19.00;;
32236;SDS011;18726;44.732;10.550;2023-10-13T16:48:51;22.27;;;17.65;;
32236;SDS011;18726;44.732;10.550;2023-10-13T16:51:54;40.83;;;22.15;;
32236;SDS011;18726;44.732;10.550;2023-10-13T16:54:57;40.60;;;23.67;;
32236;SDS011;18726;44.732;10.550;2023-10-13T16:58:01;34.33;;;24.23;;
32236;SDS011;18726;44.732;10.550;2023-10-13T17:01:11;26.63;;;21.98;;
32236;SDS011;18726;44.732;10.550;2023-10-13T17:04:15;32.17;;;22.23;;
32236;SDS011;18726;44.732;10.550;2023-10-13T17:07:22;38.38;;;22.75;;
32236;SDS011;18726;44.732;10.550;2023-10-13T17:10:26;32.97;;;21.70;;
32236;SDS011;18726;44.732;10.550;2023-10-13T17:13:31;31.17;;;23.20;;
32236;SDS011;18726;44.732;10.550;2023-10-13T17:16:35;37.38;;;22.85;;
32236;SDS011;18726;44.732;10.550;2023-10-13T17:19:40;27.60;;;23.42;;
32236;SDS011;18726;44.732;10.550;2023-10-13T17:22:50;33.20;;;22.95;;
32236;SDS011;18726;44.732;10.550;2023-10-13T17:25:53;31.80;;;17.02;;
32236;SDS011;18726;44.732;10.550;2023-10-13T17:28:57;26.00;;;16.67;;
32236;SDS011;18726;44.732;10.550;2023-10-13T17:32:06;29.08;;;21.50;;
32236;SDS011;18726;44.732;10.550;2023-10-13T17:35:11;32.80;;;22.77;;
32236;SDS011;18726;44.732;10.550;2023-10-13T17:38:16;28.80;;;18.58;;
32236;SDS011;18726;44.732;10.550;2023-10-13T17:41:19;27.60;;;19.85;;
32236;SDS011;18726;44.732;10.550;2023-10-13T17:44:24;21.67;;;17.52;;
32236;SDS011;18726;44.732;10.550;2023-10-13T17:47:28;25.63;;;19.83;;
32236;SDS011;18726;44.732;10.550;2023-10-13T17:50:31;31.13;;;18.25;;
32236;SDS011;18726;44.732;10.550;2023-10-13T17:53:36;23.80;;;18.45;;
32236;SDS011;18726;44.732;10.550;2023-10-13T17:56:41;16.83;;;15.05;;
32236;SDS011;18726;44.732;10.550;2023-10-13T17:59:44;24.58;;;17.23;;
32236;SDS011;18726;44.732;10.550;2023-10-13T18:02:49;29.25;;;19.92;;
32236;SDS011;18726;44.732;10.550;2023-10-13T18:06:02;28.90;;;21.08;;
32236;SDS011;18726;44.732;10.550;2023-10-13T18:09:06;28.83;;;23.25;;
32236;SDS011;18726;44.732;10.550;2023-10-13T18:12:14;49.13;;;26.38;;
32236;SDS011;18726;44.732;10.550;2023-10-13T18:15:18;45.05;;;24.88;;
32236;SDS011;18726;44.732;10.550;2023-10-13T18:18:27;34.67;;;27.05;;
32236;SDS011;18726;44.732;10.550;2023-10-13T18:21:31;45.95;;;28.38;;